TFM - Tactical Decision Aid (Experimental) INFO Settings
ID: Runway Winds: CIG/VIS Threshold: METAR Board:

KCUB - Columbia-Jim Hamilton LB Owens

Updated at: 2045 UTC 19 Jul 2018
Latest TAF at: 1754 UTC 19 Jul 2018

TAF Board

Time1953Z19/21Z19/22Z19/23Z20/00Z20/01Z20/02Z20/03Z20/04Z20/05Z20/06Z20/07Z20/08Z20/09Z
TypeOBSPRVLPRVLPRVLPRVLPRVLPRVLPRVLPRVLPRVLPRVLPRVLPRVLPRVL
VIS10>6>6>6>6>6>6>6>6>6>6>6>6>6
CIG--2502502502502502502502502502502503535
CoverCLRBKNBKNBKNBKNBKNBKNBKNBKNBKNBKNBKNBKNBKN
FltCatVFRVFRVFRVFRVFRVFRVFRVFRVFRVFRVFRVFRVFRVFR
WX----------------------------
WDir140100VRBVRBVRBVRBVRBVRBVRBVRBVRBVRBVRBVRB
WSpd77333333333333
WGst----------------------------
TAF
KCUB 191754Z 1918/2018 10007KT P6SM SCT035 BKN250
  TEMPO 1918/1920 6SM SHRA
  FM192200 VRB03KT P6SM SCT035 BKN250
  FM200800 VRB03KT P6SM SCT015 BKN035
  TEMPO 2011/2015 BKN015


METAR
KCUB 191953Z AUTO 14007KT 100V180 10SM CLR 29/21 A2998 RMK AO2 SLP150 T02940206

TAF/METAR Board Legend

Potential Impact
  None Marginal Slight Moderate High
Visibility (sm) >5 3≤X≤5 2≤X<3 1≤X<2 <1
Ceiling (100 ft) >30 10≤X≤30 8≤X<10 5≤X<8 <5
Wind Speed (kt) <10 10≤X<20 20≤X<30 ≥30
Wind Gust (kt) <15 15≤X<25 25≤X<35 ≥35
Weather No Wx Reported VCTS -TS,-FZRA TS,FZRA +TS,+FZRA